Time;durP1;ratioP1;P1;durP2;ratioP2;P2;SDS_P1;SDS_P2;PMS_P1;PMS_P2;Temp;Humidity;BMP_temperature;BMP_pressure;BME280_temperature;BME280_humidity;BME280_pressure;Samples;Min_cycle;Max_cycle;Signal;HPM_P1;HPM_P2
2023/03/06 00:00:54;;;;;;;34.53;14.90;;;0.50;99.90;;;;;;5052957;28;20475;-86
2023/03/06 00:03:21;;;;;;;38.25;16.67;;;0.50;99.90;;;;;;5036433;28;20025;-86
2023/03/06 00:05:46;;;;;;;32.17;15.07;;;0.40;99.90;;;;;;5036252;28;20493;-86
2023/03/06 00:08:12;;;;;;;37.72;16.85;;;0.40;99.90;;;;;;5052636;28;20067;-86
2023/03/06 00:10:39;;;;;;;37.30;16.80;;;0.40;99.90;;;;;;5036103;28;20033;-87
2023/03/06 00:13:07;;;;;;;39.67;16.17;;;0.30;99.90;;;;;;5052313;28;20033;-87
2023/03/06 00:15:33;;;;;;;33.95;16.08;;;0.30;99.90;;;;;;5032453;28;20040;-86
2023/03/06 00:17:59;;;;;;;35.58;16.10;;;0.30;99.90;;;;;;5035677;28;20033;-87
2023/03/06 00:20:25;;;;;;;36.22;16.45;;;0.30;99.90;;;;;;5052337;28;20503;-86
2023/03/06 00:22:51;;;;;;;34.08;17.13;;;0.30;99.90;;;;;;5052135;28;20373;-87
2023/03/06 00:25:20;;;;;;;37.47;16.75;;;0.20;99.90;;;;;;5035783;28;20029;-87
2023/03/06 00:27:46;;;;;;;34.58;17.30;;;0.20;99.90;;;;;;5050223;28;20078;-87
2023/03/06 00:30:18;;;;;;;40.72;18.65;;;0.20;99.90;;;;;;5053592;28;20052;-86
2023/03/06 00:32:44;;;;;;;36.45;17.00;;;0.20;99.90;;;;;;5030622;28;20062;-86
2023/03/06 00:35:11;;;;;;;39.60;16.75;;;0.20;99.90;;;;;;5035250;28;20113;-87
2023/03/06 00:37:36;;;;;;;52.15;18.00;;;0.10;99.90;;;;;;5050429;28;20070;-86
2023/03/06 00:40:05;;;;;;;40.17;18.38;;;0.10;99.90;;;;;;5052021;28;20025;-86
2023/03/06 00:42:31;;;;;;;43.47;16.85;;;0.10;99.90;;;;;;5052474;28;20056;-86
2023/03/06 00:44:56;;;;;;;42.17;17.30;;;0.10;99.90;;;;;;5035571;28;20083;-86
2023/03/06 00:51:09;;;;;;;39.83;17.38;;;0.10;99.90;;;;;;5054686;28;20038;-86
2023/03/06 00:53:35;;;;;;;46.20;19.95;;;0.20;99.90;;;;;;5066836;28;20107;-86
2023/03/06 00:56:01;;;;;;;42.13;17.58;;;0.20;99.90;;;;;;5052066;28;20032;-87
2023/03/06 00:58:26;;;;;;;46.75;20.25;;;0.10;99.90;;;;;;5035474;28;20400;-86
2023/03/06 01:01:14;;;;;;;43.00;18.92;;;0.20;99.90;;;;;;5035868;28;20552;-86
2023/03/06 01:03:49;;;;;;;49.53;20.00;;;0.20;99.90;;;;;;5051910;28;20025;-86
2023/03/06 01:06:15;;;;;;;43.72;20.27;;;0.20;99.90;;;;;;5035090;28;20047;-86
2023/03/06 01:08:41;;;;;;;42.03;18.38;;;0.20;99.90;;;;;;5051649;28;20044;-86
2023/03/06 01:11:06;;;;;;;46.15;19.58;;;0.20;99.90;;;;;;5035423;28;20473;-86
2023/03/06 01:13:32;;;;;;;43.30;18.83;;;0.20;99.90;;;;;;5068874;28;20036;-86
2023/03/06 01:16:09;;;;;;;35.72;17.75;;;0.20;99.90;;;;;;5035361;28;20025;-87
2023/03/06 01:19:03;;;;;;;43.65;18.73;;;0.20;99.90;;;;;;5035543;28;20033;-86
2023/03/06 01:21:28;;;;;;;43.13;17.25;;;0.30;99.90;;;;;;5030204;28;20025;-86
2023/03/06 01:23:54;;;;;;;37.35;18.05;;;0.30;99.90;;;;;;5051821;28;20503;-87
2023/03/06 01:26:20;;;;;;;39.65;18.00;;;0.30;99.90;;;;;;5035318;28;20017;-86
2023/03/06 01:28:45;;;;;;;39.15;18.00;;;0.30;99.90;;;;;;5034786;28;20074;-86
2023/03/06 01:31:11;;;;;;;38.13;17.05;;;0.30;99.90;;;;;;5035195;28;20025;-86
2023/03/06 01:33:38;;;;;;;45.25;18.38;;;0.30;99.90;;;;;;5033419;28;20032;-86
2023/03/06 01:36:10;;;;;;;47.30;19.83;;;0.30;99.90;;;;;;5035065;28;20029;-87
2023/03/06 01:38:36;;;;;;;43.40;17.80;;;0.30;99.90;;;;;;5051198;28;20362;-87
2023/03/06 01:41:02;;;;;;;40.72;18.55;;;0.30;99.90;;;;;;5034739;28;20079;-86
2023/03/06 01:43:31;;;;;;;47.72;17.95;;;0.30;99.90;;;;;;5052561;28;20087;-86
2023/03/06 01:46:19;;;;;;;42.80;18.65;;;0.30;99.90;;;;;;5034942;28;20033;-87
2023/03/06 01:48:46;;;;;;;45.05;17.65;;;0.30;99.90;;;;;;5032368;28;20115;-86
2023/03/06 01:51:13;;;;;;;46.05;18.55;;;0.30;99.90;;;;;;5057081;28;20101;-86
2023/03/06 01:53:39;;;;;;;42.92;17.65;;;0.30;99.90;;;;;;5046590;28;20036;-86
2023/03/06 01:56:06;;;;;;;43.45;18.77;;;0.30;99.90;;;;;;5034593;28;20036;-86
2023/03/06 01:58:32;;;;;;;39.38;17.42;;;0.30;99.90;;;;;;5031604;28;20029;-87
2023/03/06 02:00:57;;;;;;;47.17;18.80;;;0.30;99.90;;;;;;5037195;28;20021;-87
2023/03/06 02:03:27;;;;;;;48.95;18.67;;;0.30;99.90;;;;;;5038403;28;20052;-86
2023/03/06 02:05:53;;;;;;;40.58;16.63;;;0.20;99.90;;;;;;5038397;28;20116;-86
2023/03/06 02:08:21;;;;;;;44.80;19.25;;;0.30;99.90;;;;;;5054860;28;20170;-87
2023/03/06 02:11:12;;;;;;;34.75;17.10;;;0.30;99.90;;;;;;5037975;28;20025;-86
2023/03/06 02:13:40;;;;;;;42.53;17.58;;;0.20;99.90;;;;;;5038483;28;20075;-86
2023/03/06 02:16:08;;;;;;;42.97;18.10;;;0.30;99.90;;;;;;5038308;28;20021;-86
2023/03/06 02:18:34;;;;;;;39.70;17.02;;;0.20;99.90;;;;;;5038354;28;20025;-86
2023/03/06 02:21:05;;;;;;;36.97;17.15;;;0.20;99.90;;;;;;5055090;28;20029;-86
2023/03/06 02:23:52;;;;;;;39.80;17.27;;;0.20;99.90;;;;;;5054393;28;20025;-87
2023/03/06 02:26:20;;;;;;;39.15;16.65;;;0.30;99.90;;;;;;5055142;28;20025;-86
2023/03/06 02:29:02;;;;;;;43.00;18.27;;;0.30;99.90;;;;;;5035861;28;20036;-87
2023/03/06 02:31:30;;;;;;;39.80;16.48;;;0.30;99.90;;;;;;5037984;28;20024;-86
2023/03/06 02:34:14;;;;;;;42.38;17.42;;;0.30;99.90;;;;;;5054654;28;20423;-86
2023/03/06 02:36:44;;;;;;;40.47;16.17;;;0.30;99.90;;;;;;5084153;28;20079;-87
2023/03/06 02:39:12;;;;;;;41.83;15.63;;;0.30;99.90;;;;;;5038120;28;20541;-87
2023/03/06 02:41:39;;;;;;;42.03;17.33;;;0.30;99.90;;;;;;5037585;28;20079;-86
2023/03/06 02:44:06;;;;;;;41.95;16.52;;;0.30;99.90;;;;;;5037740;28;20376;-87
2023/03/06 02:46:32;;;;;;;36.13;16.85;;;0.30;99.90;;;;;;5070666;28;20116;-87
2023/03/06 02:48:57;;;;;;;38.65;16.77;;;0.30;99.90;;;;;;5037128;28;20032;-87
2023/03/06 02:51:24;;;;;;;39.10;17.08;;;0.30;99.90;;;;;;5037472;28;20075;-87
2023/03/06 02:53:49;;;;;;;39.47;16.33;;;0.20;99.90;;;;;;5037602;28;20196;-86
2023/03/06 02:56:15;;;;;;;41.40;16.60;;;0.20;99.90;;;;;;5070470;28;20013;-86
2023/03/06 02:59:09;;;;;;;31.77;15.63;;;0.20;99.90;;;;;;5037378;28;20499;-87
2023/03/06 03:01:35;;;;;;;35.80;15.52;;;0.20;99.90;;;;;;5054115;28;20116;-86
2023/03/06 03:04:02;;;;;;;35.88;15.43;;;0.20;99.90;;;;;;5037463;28;20025;-86
2023/03/06 03:06:28;;;;;;;41.00;16.00;;;0.20;99.90;;;;;;5037895;28;20116;-86
2023/03/06 03:08:54;;;;;;;34.60;15.98;;;0.20;99.90;;;;;;5037467;28;20052;-87
2023/03/06 03:11:20;;;;;;;38.60;16.42;;;0.10;99.90;;;;;;5053019;28;20029;-87
2023/03/06 03:13:46;;;;;;;31.02;15.18;;;0.10;99.90;;;;;;5037446;28;20029;-86
2023/03/06 03:16:16;;;;;;;40.25;16.73;;;0.20;99.90;;;;;;5038265;28;20021;-86
2023/03/06 03:18:43;;;;;;;40.38;16.30;;;0.20;99.90;;;;;;5037150;28;20039;-86
2023/03/06 03:21:12;;;;;;;30.10;15.13;;;0.10;99.90;;;;;;5036815;28;20056;-86
2023/03/06 03:23:38;;;;;;;32.92;15.90;;;0.10;99.90;;;;;;5034916;28;20029;-87
2023/03/06 03:26:08;;;;;;;37.55;16.15;;;0.10;99.90;;;;;;5037004;28;20372;-87
2023/03/06 03:29:03;;;;;;;35.60;15.75;;;0.10;99.90;;;;;;5037194;28;20033;-86
2023/03/06 03:31:35;;;;;;;38.60;16.85;;;0.10;99.90;;;;;;5047072;28;20033;-87
2023/03/06 03:34:45;;;;;;;34.95;16.23;;;0.10;99.90;;;;;;5068294;28;20052;-86
2023/03/06 03:37:11;;;;;;;39.60;16.23;;;0.00;99.90;;;;;;5086560;28;20051;-87
2023/03/06 03:39:37;;;;;;;44.38;17.27;;;0.00;99.90;;;;;;5036752;28;20020;-87
2023/03/06 03:42:03;;;;;;;40.47;16.90;;;0.10;99.90;;;;;;5036935;28;20048;-87
2023/03/06 03:44:29;;;;;;;37.03;16.90;;;0.00;99.90;;;;;;5036920;28;20025;-86
2023/03/06 03:46:55;;;;;;;41.85;16.75;;;0.10;99.90;;;;;;5037202;28;20353;-86
2023/03/06 03:49:47;;;;;;;35.25;16.35;;;0.00;99.90;;;;;;5036770;28;20112;-86
2023/03/06 03:52:34;;;;;;;35.60;16.47;;;0.00;99.90;;;;;;5036480;28;20025;-87
2023/03/06 03:55:00;;;;;;;38.15;16.65;;;0.00;99.90;;;;;;5036388;28;20523;-87
2023/03/06 03:57:27;;;;;;;36.38;16.33;;;0.00;99.90;;;;;;5053033;28;20074;-86
2023/03/06 03:59:55;;;;;;;35.50;16.13;;;0.00;99.90;;;;;;5036885;28;20469;-87
2023/03/06 04:02:25;;;;;;;39.87;16.63;;;0.00;99.90;;;;;;5037281;28;20112;-87
2023/03/06 04:04:59;;;;;;;38.05;17.17;;;0.00;99.90;;;;;;5037455;28;20036;-86
2023/03/06 04:07:25;;;;;;;32.58;14.45;;;0.00;99.90;;;;;;5036286;28;20044;-87
2023/03/06 04:09:51;;;;;;;36.92;15.77;;;0.00;99.90;;;;;;5036147;28;20159;-87
2023/03/06 04:12:17;;;;;;;40.63;17.63;;;-0.10;99.90;;;;;;5032970;28;20049;-86
2023/03/06 04:14:43;;;;;;;36.50;16.83;;;0.00;99.90;;;;;;5052915;28;20064;-87
2023/03/06 04:17:09;;;;;;;35.85;17.67;;;0.00;99.90;;;;;;5036209;28;20029;-87
2023/03/06 04:19:34;;;;;;;40.95;17.55;;;-0.10;99.90;;;;;;5050786;28;20029;-86
2023/03/06 04:22:01;;;;;;;40.80;17.00;;;-0.10;99.90;;;;;;5036004;28;20082;-86
2023/03/06 04:24:28;;;;;;;36.58;16.80;;;0.00;99.90;;;;;;5035974;28;20481;-86
2023/03/06 04:26:54;;;;;;;37.50;17.00;;;-0.10;99.90;;;;;;5052094;28;20120;-87
2023/03/06 04:29:20;;;;;;;39.53;16.80;;;0.00;99.90;;;;;;5032369;28;20025;-87
2023/03/06 04:31:45;;;;;;;34.47;15.88;;;0.00;99.90;;;;;;5036334;28;20025;-86
2023/03/06 04:34:11;;;;;;;35.45;14.20;;;0.00;99.90;;;;;;5035860;28;20387;-87
2023/03/06 04:36:37;;;;;;;38.58;17.20;;;0.00;99.90;;;;;;5069426;28;20392;-87
2023/03/06 04:39:12;;;;;;;36.33;15.00;;;0.00;99.90;;;;;;5068992;28;20029;-87
2023/03/06 04:41:39;;;;;;;42.03;16.58;;;0.00;99.90;;;;;;5069015;28;20112;-86
2023/03/06 04:44:05;;;;;;;34.08;15.50;;;-0.10;99.90;;;;;;5052263;28;20035;-87
2023/03/06 04:46:31;;;;;;;36.13;14.82;;;-0.10;99.90;;;;;;5035721;28;20039;-87
2023/03/06 04:48:57;;;;;;;37.35;16.02;;;-0.10;99.90;;;;;;5036032;28;20024;-87
2023/03/06 04:51:22;;;;;;;46.60;16.13;;;-0.10;99.90;;;;;;5035980;28;20025;-87
2023/03/06 04:54:07;;;;;;;32.97;14.93;;;-0.10;99.90;;;;;;5035513;28;20071;-86
2023/03/06 04:56:33;;;;;;;41.25;15.45;;;-0.10;99.90;;;;;;5069214;28;20055;-87
2023/03/06 04:58:59;;;;;;;36.45;15.63;;;-0.10;99.90;;;;;;5028442;28;20036;-86
2023/03/06 05:01:24;;;;;;;36.30;15.85;;;-0.10;99.90;;;;;;5036308;28;20017;-87
2023/03/06 05:03:50;;;;;;;33.95;15.27;;;-0.10;99.90;;;;;;5051919;28;20024;-88
2023/03/06 05:06:16;;;;;;;35.92;14.32;;;-0.10;99.90;;;;;;5035319;28;20036;-86
2023/03/06 05:08:41;;;;;;;33.42;14.43;;;-0.10;99.90;;;;;;5035714;28;20025;-86
2023/03/06 05:11:07;;;;;;;30.38;14.48;;;-0.10;99.90;;;;;;5051815;28;20081;-87
2023/03/06 05:13:33;;;;;;;40.75;14.82;;;0.00;99.90;;;;;;5035035;28;20396;-87
2023/03/06 05:16:05;;;;;;;37.85;15.55;;;0.00;99.90;;;;;;5033730;28;20063;-86
2023/03/06 05:18:32;;;;;;;43.15;17.55;;;0.00;99.90;;;;;;5035606;28;20048;-87
2023/03/06 05:20:58;;;;;;;46.85;16.80;;;0.00;99.90;;;;;;5034729;28;20135;-87
2023/03/06 05:23:26;;;;;;;39.80;14.93;;;0.00;99.90;;;;;;5035065;28;20025;-86
2023/03/06 05:25:51;;;;;;;35.72;15.52;;;0.00;99.90;;;;;;5035767;28;20029;-87
2023/03/06 05:28:17;;;;;;;33.25;15.85;;;0.00;99.90;;;;;;5035442;28;20032;-86
2023/03/06 05:30:43;;;;;;;39.10;15.07;;;0.00;99.90;;;;;;5051876;28;20465;-86
2023/03/06 05:33:08;;;;;;;40.80;17.42;;;0.10;99.90;;;;;;5035131;28;20108;-86
2023/03/06 05:35:34;;;;;;;36.35;17.45;;;0.10;99.90;;;;;;5037548;28;20111;-86
2023/03/06 05:38:00;;;;;;;40.80;19.00;;;0.00;99.90;;;;;;5056188;28;20041;-86
2023/03/06 05:40:25;;;;;;;36.83;16.73;;;0.00;99.90;;;;;;5039559;28;20024;-87
2023/03/06 05:42:51;;;;;;;35.70;16.25;;;0.00;99.90;;;;;;5039291;28;20091;-87
2023/03/06 05:45:17;;;;;;;39.92;18.75;;;0.00;99.90;;;;;;5038858;28;20052;-87
2023/03/06 05:48:05;;;;;;;37.63;15.52;;;0.00;99.90;;;;;;5039241;28;20044;-86
2023/03/06 05:50:31;;;;;;;37.53;15.77;;;0.10;99.90;;;;;;5056985;28;20718;-87
2023/03/06 05:52:57;;;;;;;34.28;15.77;;;0.10;99.90;;;;;;5055610;28;20028;-86
2023/03/06 05:55:23;;;;;;;40.40;15.68;;;0.10;99.90;;;;;;5039315;28;20033;-86
2023/03/06 05:57:50;;;;;;;70.60;26.77;;;0.10;99.90;;;;;;5033105;28;20079;-89
2023/03/06 06:00:17;;;;;;;89.45;33.72;;;0.10;99.90;;;;;;5068570;28;20029;-89
2023/03/06 06:02:43;;;;;;;60.22;24.13;;;0.10;99.90;;;;;;5047931;28;20127;-89
2023/03/06 06:05:10;;;;;;;37.05;17.23;;;0.10;99.90;;;;;;5038407;28;20496;-90
2023/03/06 06:07:36;;;;;;;44.78;18.90;;;0.10;99.90;;;;;;5057596;28;20025;-89
2023/03/06 06:10:02;;;;;;;39.42;17.35;;;0.10;99.90;;;;;;5040893;28;20025;-90
2023/03/06 06:12:28;;;;;;;40.78;16.70;;;0.20;99.90;;;;;;5040392;28;20025;-90
2023/03/06 06:14:54;;;;;;;37.20;17.10;;;0.20;99.90;;;;;;5040130;28;20039;-90
2023/03/06 06:17:20;;;;;;;45.78;18.02;;;0.20;99.90;;;;;;5039976;28;20021;-90
2023/03/06 06:19:45;;;;;;;34.35;15.55;;;0.30;99.90;;;;;;5039964;28;20079;-89
2023/03/06 06:22:20;;;;;;;40.15;16.83;;;0.30;99.90;;;;;;5039547;28;20033;-89
2023/03/06 06:24:46;;;;;;;36.83;16.25;;;0.30;99.90;;;;;;5039967;28;20033;-89
2023/03/06 06:27:11;;;;;;;36.40;15.35;;;0.30;99.90;;;;;;5039777;28;20035;-90
2023/03/06 06:29:37;;;;;;;33.08;14.98;;;0.30;99.90;;;;;;5039691;28;20025;-90
2023/03/06 06:32:03;;;;;;;39.60;16.33;;;0.30;99.90;;;;;;5039588;28;20037;-90
2023/03/06 06:34:30;;;;;;;45.08;16.83;;;0.40;99.90;;;;;;5039392;28;20112;-90
2023/03/06 06:36:56;;;;;;;39.65;16.70;;;0.40;99.90;;;;;;5039824;28;20040;-90
2023/03/06 06:39:22;;;;;;;34.42;15.15;;;0.30;99.90;;;;;;5039754;28;20025;-90
2023/03/06 06:41:50;;;;;;;43.83;16.63;;;0.30;99.90;;;;;;5039513;28;20033;-90
2023/03/06 06:44:16;;;;;;;33.90;15.57;;;0.30;99.90;;;;;;5040008;28;20028;-90
2023/03/06 06:46:44;;;;;;;33.38;14.30;;;0.30;99.90;;;;;;5038825;28;20464;-90
2023/03/06 06:52:57;;;;;;;227.25;73.70;;;0.40;99.90;;;;;;5053137;28;20087;-90
2023/03/06 06:55:23;;;;;;;120.50;39.78;;;0.40;99.90;;;;;;5038445;28;20028;-89
2023/03/06 06:57:48;;;;;;;320.13;93.28;;;0.30;99.90;;;;;;5038506;28;20388;-90
2023/03/06 07:00:15;;;;;;;63.00;23.30;;;0.30;99.90;;;;;;5038644;28;20124;-89
2023/03/06 07:02:41;;;;;;;38.42;17.35;;;0.30;99.90;;;;;;5035004;28;20041;-89
2023/03/06 07:05:07;;;;;;;38.72;17.38;;;0.30;99.90;;;;;;5038170;28;20116;-90
2023/03/06 07:07:35;;;;;;;41.60;18.55;;;0.30;99.90;;;;;;5047898;28;20132;-90
2023/03/06 07:10:05;;;;;;;36.83;16.95;;;0.40;99.90;;;;;;5038315;28;20178;-89
2023/03/06 07:12:31;;;;;;;39.80;17.13;;;0.40;99.90;;;;;;5055091;28;20540;-89
2023/03/06 07:15:07;;;;;;;44.70;16.83;;;0.50;99.90;;;;;;5037950;28;20036;-90
2023/03/06 07:17:33;;;;;;;43.47;18.60;;;0.40;99.90;;;;;;5071685;28;20033;-89
2023/03/06 07:19:58;;;;;;;39.40;17.25;;;0.50;99.90;;;;;;5038481;28;20043;-90
2023/03/06 07:22:24;;;;;;;36.15;15.98;;;0.50;99.90;;;;;;5038212;28;20028;-90
2023/03/06 07:24:50;;;;;;;41.30;17.05;;;0.50;99.90;;;;;;5038313;28;20052;-90
2023/03/06 07:27:16;;;;;;;37.78;16.80;;;0.60;99.90;;;;;;5054428;28;20056;-90
2023/03/06 07:29:42;;;;;;;35.67;15.98;;;0.60;99.90;;;;;;5050733;28;20032;-90
2023/03/06 07:32:09;;;;;;;45.75;16.98;;;0.60;99.90;;;;;;5064303;28;20029;-90
2023/03/06 07:34:34;;;;;;;37.97;16.48;;;0.70;99.90;;;;;;5040265;28;20021;-90
2023/03/06 07:37:00;;;;;;;38.25;15.55;;;0.70;99.90;;;;;;5059517;28;20044;-90
2023/03/06 07:39:27;;;;;;;35.47;16.33;;;0.70;99.90;;;;;;5066343;28;20070;-90
2023/03/06 07:42:23;;;;;;;38.80;17.88;;;0.70;99.90;;;;;;5049689;28;20035;-91
2023/03/06 07:44:58;;;;;;;41.40;16.88;;;0.70;99.90;;;;;;5031507;28;20048;-90
2023/03/06 07:47:24;;;;;;;36.83;16.83;;;0.80;99.90;;;;;;5063350;28;20021;-90
2023/03/06 07:49:53;;;;;;;43.22;18.42;;;0.90;99.90;;;;;;5034255;28;20029;-89
2023/03/06 07:52:19;;;;;;;41.17;19.30;;;0.90;99.90;;;;;;5053053;28;20025;-90
2023/03/06 07:55:04;;;;;;;46.65;19.30;;;0.90;99.90;;;;;;5033935;28;20026;-90
2023/03/06 07:57:29;;;;;;;40.25;18.35;;;0.90;99.90;;;;;;5037846;28;20095;-90
2023/03/06 07:59:55;;;;;;;43.38;18.70;;;0.90;99.90;;;;;;5042792;28;20119;-90
2023/03/06 08:02:21;;;;;;;43.05;18.33;;;0.90;99.90;;;;;;5032924;28;20047;-90
2023/03/06 08:04:54;;;;;;;42.72;18.33;;;0.90;99.90;;;;;;5062326;28;20036;-90
2023/03/06 08:07:20;;;;;;;42.38;17.45;;;0.90;99.90;;;;;;5062068;28;20025;-90
2023/03/06 08:09:45;;;;;;;44.80;18.85;;;0.80;99.90;;;;;;5036678;28;20029;-90
2023/03/06 08:12:11;;;;;;;42.15;18.67;;;0.70;99.90;;;;;;5035685;28;20384;-89
2023/03/06 08:14:37;;;;;;;43.55;20.17;;;0.80;99.90;;;;;;5036678;28;20029;-90
2023/03/06 08:17:03;;;;;;;42.10;18.58;;;1.00;99.90;;;;;;5033108;28;20029;-90
2023/03/06 08:19:28;;;;;;;43.58;18.80;;;1.10;99.90;;;;;;5064224;28;20380;-90
2023/03/06 08:21:54;;;;;;;40.72;17.90;;;1.10;99.90;;;;;;5046705;28;20033;-90
2023/03/06 08:24:20;;;;;;;49.92;18.25;;;1.20;99.90;;;;;;5067664;28;20041;-90
2023/03/06 08:26:46;;;;;;;49.03;20.77;;;1.10;99.90;;;;;;5036528;28;20098;-90
2023/03/06 08:29:12;;;;;;;40.53;19.65;;;1.10;99.90;;;;;;5063193;28;20476;-90
2023/03/06 08:32:18;;;;;;;44.38;19.88;;;1.00;99.90;;;;;;5036658;28;20033;-90
2023/03/06 08:34:44;;;;;;;43.25;19.80;;;0.90;99.90;;;;;;5030209;28;20484;-90
2023/03/06 08:37:47;;;;;;;44.95;19.55;;;0.90;99.90;;;;;;5052092;28;20048;-90
2023/03/06 08:40:13;;;;;;;40.00;19.85;;;1.00;99.90;;;;;;5032636;28;20059;-90
2023/03/06 08:42:38;;;;;;;49.88;20.65;;;1.10;99.90;;;;;;5035708;28;20029;-90
2023/03/06 08:45:05;;;;;;;48.03;21.42;;;1.10;99.90;;;;;;5051121;28;20480;-90
2023/03/06 08:47:33;;;;;;;47.92;22.85;;;1.20;99.90;;;;;;5070038;28;20083;-90
2023/03/06 08:49:58;;;;;;;45.15;22.95;;;1.30;99.90;;;;;;5040989;28;20032;-90
2023/03/06 08:52:30;;;;;;;42.47;21.35;;;1.60;99.90;;;;;;5084499;28;20033;-90
2023/03/06 08:54:56;;;;;;;41.13;19.27;;;2.00;99.90;;;;;;5037234;28;20075;-90
2023/03/06 08:57:22;;;;;;;38.40;18.80;;;2.70;99.90;;;;;;5035485;28;20603;-90
2023/03/06 08:59:48;;;;;;;34.70;17.05;;;3.30;99.90;;;;;;5053308;28;20056;-89
2023/03/06 09:02:14;;;;;;;39.80;16.95;;;3.60;99.90;;;;;;5057823;28;20045;-89
2023/03/06 09:04:40;;;;;;;35.10;17.50;;;3.70;99.90;;;;;;5061509;28;20396;-89
2023/03/06 09:07:06;;;;;;;37.65;17.35;;;3.70;99.90;;;;;;5044207;28;20033;-89
2023/03/06 09:09:32;;;;;;;37.33;16.77;;;3.50;99.90;;;;;;5060952;28;20053;-89
2023/03/06 09:11:58;;;;;;;33.90;16.00;;;3.60;99.90;;;;;;5044689;28;20032;-90
2023/03/06 09:14:23;;;;;;;35.67;18.92;;;3.60;99.90;;;;;;5045007;28;20032;-89
2023/03/06 09:16:49;;;;;;;34.80;17.23;;;3.50;99.90;;;;;;5044987;28;20040;-89
2023/03/06 09:19:15;;;;;;;37.35;17.50;;;3.50;99.90;;;;;;5045685;28;20041;-89
2023/03/06 09:21:40;;;;;;;33.70;17.85;;;3.60;99.90;;;;;;5044565;28;20042;-89
2023/03/06 09:24:06;;;;;;;42.97;18.48;;;3.30;99.90;;;;;;5048006;28;20464;-90
2023/03/06 09:26:32;;;;;;;36.22;18.00;;;3.00;99.90;;;;;;5045537;28;20047;-89
2023/03/06 09:28:58;;;;;;;38.25;18.65;;;2.70;99.90;;;;;;5044332;28;20033;-89
2023/03/06 09:31:23;;;;;;;35.35;18.60;;;2.50;99.90;;;;;;5060819;28;20027;-89
2023/03/06 09:33:49;;;;;;;40.70;19.98;;;2.20;99.90;;;;;;5060895;28;20526;-89
2023/03/06 09:36:19;;;;;;;39.83;19.27;;;2.10;99.90;;;;;;5076259;28;20491;-89
2023/03/06 09:38:46;;;;;;;43.45;20.67;;;2.00;99.90;;;;;;5059331;28;20037;-90
2023/03/06 09:41:25;;;;;;;45.45;21.13;;;2.00;99.90;;;;;;5041584;28;20025;-89
2023/03/06 09:44:18;;;;;;;41.47;19.35;;;2.00;99.90;;;;;;5041665;28;20029;-90
2023/03/06 09:46:53;;;;;;;46.58;19.58;;;2.10;99.90;;;;;;5079867;28;20032;-90
2023/03/06 09:49:31;;;;;;;45.60;21.80;;;2.20;99.90;;;;;;5061394;28;20033;-90
2023/03/06 09:52:21;;;;;;;46.20;21.02;;;2.10;99.90;;;;;;5044112;28;20096;-89
2023/03/06 09:55:01;;;;;;;50.00;21.50;;;2.20;99.90;;;;;;5068654;28;20052;-89
2023/03/06 09:57:29;;;;;;;43.95;21.38;;;2.40;99.90;;;;;;5042796;28;20409;-90
2023/03/06 09:59:59;;;;;;;44.72;19.55;;;2.60;99.90;;;;;;5060336;28;20057;-89
2023/03/06 10:02:35;;;;;;;45.90;21.50;;;2.60;99.90;;;;;;5078136;28;20028;-89
2023/03/06 10:05:03;;;;;;;40.20;19.98;;;2.60;99.90;;;;;;5046328;28;20063;-90
2023/03/06 10:07:42;;;;;;;42.30;21.55;;;2.60;99.90;;;;;;5042940;28;20021;-89
2023/03/06 10:10:17;;;;;;;44.35;22.60;;;2.60;99.90;;;;;;5042381;28;20041;-90
2023/03/06 10:13:12;;;;;;;45.17;22.02;;;2.60;99.90;;;;;;5059578;28;20063;-90
2023/03/06 10:15:42;;;;;;;41.88;20.73;;;2.60;99.90;;;;;;5051701;28;20024;-89
2023/03/06 10:18:10;;;;;;;42.92;21.33;;;2.70;99.90;;;;;;5058351;28;20438;-90
2023/03/06 10:20:47;;;;;;;44.20;21.70;;;2.60;99.90;;;;;;5055507;28;20106;-89
2023/03/06 10:23:34;;;;;;;42.90;21.55;;;2.60;99.90;;;;;;5039351;28;20540;-90
2023/03/06 10:26:01;;;;;;;46.05;21.52;;;2.40;99.90;;;;;;5039085;28;20040;-89
2023/03/06 10:28:34;;;;;;;40.20;21.25;;;2.50;99.90;;;;;;5055927;28;20033;-90
2023/03/06 10:31:11;;;;;;;45.30;22.42;;;2.40;99.90;;;;;;5039077;28;20082;-90
2023/03/06 10:33:52;;;;;;;43.42;21.88;;;2.40;99.90;;;;;;5075670;28;20033;-91
2023/03/06 10:40:17;;;;;;;88.95;38.22;;;2.40;99.90;;;;;;5053012;28;20127;-90
2023/03/06 10:46:41;;;;;;;43.42;21.02;;;2.60;99.90;;;;;;5044736;28;20032;-90
2023/03/06 10:49:30;;;;;;;43.35;21.17;;;2.70;99.90;;;;;;5047631;28;20033;-89
2023/03/06 10:52:12;;;;;;;63.75;28.75;;;2.70;99.90;;;;;;5063525;28;20029;-90
2023/03/06 10:54:41;;;;;;;46.60;20.95;;;2.80;99.90;;;;;;5032229;28;20028;-90
2023/03/06 10:57:27;;;;;;;47.38;21.42;;;2.60;99.90;;;;;;5047014;28;20452;-90
2023/03/06 10:59:58;;;;;;;56.38;23.98;;;2.40;99.90;;;;;;5049326;28;20527;-90
2023/03/06 11:02:35;;;;;;;45.28;22.50;;;2.60;99.90;;;;;;5032474;28;20032;-90
2023/03/06 11:05:02;;;;;;;49.00;21.63;;;2.50;99.90;;;;;;5049875;28;20032;-90
2023/03/06 11:07:30;;;;;;;42.83;21.50;;;2.60;99.90;;;;;;5060876;28;20033;-89
2023/03/06 11:09:56;;;;;;;44.30;21.17;;;2.80;99.90;;;;;;5061434;28;20032;-90
2023/03/06 11:12:31;;;;;;;45.83;20.95;;;2.90;99.90;;;;;;5072514;28;20025;-90
2023/03/06 11:15:09;;;;;;;44.35;21.85;;;3.10;99.90;;;;;;5033080;28;20430;-89
2023/03/06 11:17:51;;;;;;;51.05;20.17;;;3.10;99.90;;;;;;5076896;28;20044;-89
2023/03/06 11:20:38;;;;;;;45.75;20.42;;;3.10;99.90;;;;;;5047607;28;20135;-90
2023/03/06 11:23:15;;;;;;;50.35;21.95;;;3.00;99.90;;;;;;5046488;28;20107;-90
2023/03/06 11:25:49;;;;;;;41.92;19.38;;;2.90;99.90;;;;;;5041581;28;20037;-89
2023/03/06 11:28:31;;;;;;;48.78;22.08;;;2.90;99.90;;;;;;5047045;28;20029;-89
2023/03/06 11:31:18;;;;;;;40.15;19.55;;;2.90;99.90;;;;;;5047147;28;20035;-90
2023/03/06 11:33:54;;;;;;;42.50;20.95;;;2.80;99.90;;;;;;5038578;28;20025;-89
2023/03/06 11:36:57;;;;;;;51.05;25.13;;;2.70;99.90;;;;;;5058721;28;20033;-90
2023/03/06 11:39:46;;;;;;;45.53;21.90;;;2.60;99.90;;;;;;5025143;28;20043;-90
2023/03/06 11:42:33;;;;;;;44.00;22.15;;;2.60;99.90;;;;;;5063267;28;20506;-90
2023/03/06 11:45:04;;;;;;;47.60;23.27;;;2.60;99.90;;;;;;5048355;28;20029;-89
2023/03/06 11:47:39;;;;;;;;;;;2.50;99.90;;;;;;5076310;28;20033;-89
2023/03/06 11:50:33;;;;;;;46.88;23.10;;;2.70;99.90;;;;;;5028387;28;20071;-89
2023/03/06 11:53:02;;;;;;;55.63;22.60;;;2.80;99.90;;;;;;5053455;28;20367;-90
2023/03/06 11:55:49;;;;;;;41.88;20.90;;;3.00;99.90;;;;;;5074044;28;20031;-89
2023/03/06 11:58:34;;;;;;;42.25;21.27;;;3.40;99.90;;;;;;5029257;28;20029;-90
2023/03/06 12:01:16;;;;;;;40.03;19.85;;;3.70;99.90;;;;;;5050602;28;20025;-89
2023/03/06 12:03:41;;;;;;;;;;;3.80;99.90;;;;;;5037476;28;20021;-89
2023/03/06 12:06:20;;;;;;;41.10;20.98;;;3.90;99.90;;;;;;5053720;28;19931;-90
2023/03/06 12:09:12;;;;;;;44.63;22.10;;;3.90;99.90;;;;;;5065685;28;20035;-89
2023/03/06 12:11:41;;;;;;;;;;;3.70;99.90;;;;;;5066165;28;20056;-89
2023/03/06 12:14:16;;;;;;;46.63;22.67;;;3.60;99.90;;;;;;5053621;28;19921;-89
2023/03/06 12:16:57;;;;;;;44.15;23.15;;;3.60;99.90;;;;;;5037189;28;20058;-88
2023/03/06 12:19:53;;;;;;;47.45;23.83;;;3.40;99.90;;;;;;5037161;28;20029;-89
2023/03/06 12:22:26;;;;;;;47.15;24.50;;;3.10;99.90;;;;;;5020573;28;20076;-89
2023/03/06 12:24:55;;;;;;;59.20;28.98;;;2.90;99.90;;;;;;5036691;28;20112;-89
2023/03/06 12:27:51;;;;;;;60.42;29.13;;;2.60;99.90;;;;;;5036826;28;20032;-89
2023/03/06 12:30:39;;;;;;;63.90;30.60;;;2.40;99.90;;;;;;5036058;28;20025;-89
2023/03/06 12:33:31;;;;;;;51.53;27.77;;;2.10;99.90;;;;;;5051214;28;20028;-89
2023/03/06 12:36:25;;;;;;;54.85;25.65;;;2.10;99.90;;;;;;5034215;28;20028;-89
2023/03/06 12:39:02;;;;;;;52.22;25.08;;;2.00;99.90;;;;;;5036998;28;20032;-89
2023/03/06 12:41:59;;;;;;;53.70;25.20;;;2.00;99.90;;;;;;5036398;28;20032;-89
2023/03/06 12:44:51;;;;;;;50.95;23.58;;;2.10;99.90;;;;;;5036356;28;20079;-89
2023/03/06 12:47:20;;;;;;;47.42;23.20;;;2.30;99.90;;;;;;5032899;28;20125;-90
2023/03/06 12:50:16;;;;;;;55.65;26.55;;;2.30;99.90;;;;;;5036300;28;20032;-90
2023/03/06 12:52:43;;;;;;;46.08;21.92;;;2.40;99.90;;;;;;5036179;28;20032;-89
2023/03/06 12:55:15;;;;;;;48.72;24.02;;;2.30;99.90;;;;;;5036266;28;20029;-90
2023/03/06 12:57:41;;;;;;;46.72;21.75;;;2.30;99.90;;;;;;5036367;28;20032;-90
2023/03/06 13:00:10;;;;;;;49.50;25.05;;;2.30;99.90;;;;;;5033038;28;20460;-90
2023/03/06 13:03:11;;;;;;;53.60;25.88;;;2.30;99.90;;;;;;5068884;28;20091;-89
2023/03/06 13:05:48;;;;;;;49.50;24.42;;;2.10;99.90;;;;;;5036305;28;20036;-90
2023/03/06 13:08:25;;;;;;;58.60;26.10;;;2.20;99.90;;;;;;5038035;28;20388;-90
2023/03/06 13:11:12;;;;;;;65.93;30.60;;;2.40;99.90;;;;;;5039651;28;20115;-90
2023/03/06 13:13:43;;;;;;;51.67;24.85;;;2.50;99.90;;;;;;5045834;28;20133;-90